createdAt,value
2024-05-09T00:00:46.040Z,12.80
2024-05-09T00:03:13.730Z,12.70
2024-05-09T00:05:41.819Z,12.80
2024-05-09T00:08:10.899Z,12.80
2024-05-09T00:10:40.080Z,12.70
2024-05-09T00:13:08.972Z,12.70
2024-05-09T00:15:37.321Z,12.70
2024-05-09T00:18:06.830Z,12.70
2024-05-09T00:20:39.030Z,12.60
2024-05-09T00:23:12.990Z,12.70
2024-05-09T00:25:44.780Z,12.60
2024-05-09T00:28:13.163Z,12.60
2024-05-09T00:30:41.131Z,12.50
2024-05-09T00:33:10.391Z,12.40
2024-05-09T00:35:39.186Z,12.80
2024-05-09T00:38:06.911Z,12.50
2024-05-09T00:40:40.058Z,12.50
2024-05-09T00:43:14.474Z,12.50
2024-05-09T00:45:43.379Z,12.40
2024-05-09T00:48:15.168Z,12.40
2024-05-09T00:50:46.684Z,12.40
2024-05-09T00:53:16.448Z,12.40
2024-05-09T00:55:44.866Z,12.50
2024-05-09T00:58:16.390Z,12.40
2024-05-09T01:00:44.524Z,12.40
2024-05-09T01:03:13.729Z,12.40
2024-05-09T01:05:45.035Z,12.40
2024-05-09T01:08:13.340Z,12.30
2024-05-09T01:10:43.953Z,12.30
2024-05-09T01:13:12.794Z,12.30
2024-05-09T01:15:40.306Z,12.50
2024-05-09T01:18:13.911Z,12.30
2024-05-09T01:20:44.319Z,12.30
2024-05-09T01:23:15.281Z,12.30
2024-05-09T01:25:45.128Z,12.30
2024-05-09T01:28:13.308Z,12.20
2024-05-09T01:30:40.721Z,12.20
2024-05-09T01:33:10.484Z,12.80
2024-05-09T01:35:42.007Z,12.10
2024-05-09T01:38:13.211Z,12.20
2024-05-09T01:40:41.080Z,12.20
2024-05-09T01:43:10.074Z,12.10
2024-05-09T01:45:38.986Z,12.10
2024-05-09T01:48:06.960Z,12.10
2024-05-09T01:50:39.545Z,12.10
2024-05-09T01:53:11.161Z,12.20
2024-05-09T01:55:38.838Z,13.10
2024-05-09T01:58:06.429Z,12.10
2024-05-09T02:00:39.488Z,12.20
2024-05-09T02:03:16.419Z,12.00
2024-05-09T02:05:52.595Z,12.00
2024-05-09T02:08:22.049Z,12.00
2024-05-09T02:10:50.662Z,12.00
2024-05-09T02:13:18.423Z,12.00
2024-05-09T02:15:46.021Z,12.00
2024-05-09T02:18:14.023Z,12.00
2024-05-09T02:20:42.933Z,12.00
2024-05-09T02:23:11.036Z,12.00
2024-05-09T02:25:38.627Z,12.00
2024-05-09T02:28:06.447Z,12.00
2024-05-09T02:30:39.736Z,12.00
2024-05-09T02:33:11.484Z,12.00
2024-05-09T02:35:41.131Z,12.30
2024-05-09T02:38:10.246Z,12.00
2024-05-09T02:40:39.472Z,12.00
2024-05-09T02:43:10.136Z,12.00
2024-05-09T02:45:41.313Z,12.00
2024-05-09T02:48:13.399Z,12.00
2024-05-09T02:50:41.898Z,12.00
2024-05-09T02:53:10.236Z,12.00
2024-05-09T02:55:38.842Z,12.00
2024-05-09T02:58:09.905Z,12.10
2024-05-09T03:00:40.897Z,12.10
2024-05-09T03:03:13.214Z,12.10
2024-05-09T03:05:43.525Z,12.40
2024-05-09T03:08:11.311Z,12.10
2024-05-09T03:10:39.572Z,12.10
2024-05-09T03:13:14.923Z,12.10
2024-05-09T03:15:44.683Z,12.10
2024-05-09T03:18:12.858Z,12.10
2024-05-09T03:20:40.676Z,12.10
2024-05-09T03:23:09.891Z,12.10
2024-05-09T03:25:38.485Z,12.10
2024-05-09T03:28:07.468Z,12.10
2024-05-09T03:30:40.353Z,12.00
2024-05-09T03:33:12.530Z,12.00
2024-05-09T03:35:41.156Z,12.00
2024-05-09T03:38:08.835Z,12.00
2024-05-09T03:40:36.387Z,12.00
2024-05-09T03:43:03.841Z,12.00
2024-05-09T03:45:31.302Z,12.70
2024-05-09T03:47:58.949Z,12.00
2024-05-09T03:50:33.606Z,11.90
2024-05-09T03:53:03.468Z,11.90
2024-05-09T03:55:31.238Z,12.40
2024-05-09T03:57:59.004Z,11.90
2024-05-09T04:00:35.065Z,11.90
2024-05-09T04:03:09.158Z,11.90
2024-05-09T04:05:43.880Z,11.90
2024-05-09T04:08:11.980Z,11.80
2024-05-09T04:10:39.509Z,11.80
2024-05-09T04:13:06.906Z,11.80
2024-05-09T04:15:34.291Z,11.80
2024-05-09T04:18:02.479Z,11.80
2024-05-09T04:20:37.786Z,11.80
2024-05-09T04:23:09.546Z,11.70
2024-05-09T04:25:37.257Z,11.70
2024-05-09T04:28:05.372Z,11.80
2024-05-09T04:30:38.602Z,11.70
2024-05-09T04:33:11.887Z,11.70
2024-05-09T04:35:44.467Z,11.70
2024-05-09T04:38:13.798Z,11.70
2024-05-09T04:40:42.173Z,11.70
2024-05-09T04:43:16.250Z,11.70
2024-05-09T04:45:43.825Z,11.70
2024-05-09T04:48:11.702Z,11.80
2024-05-09T04:50:39.956Z,11.80
2024-05-09T04:53:15.411Z,11.80
2024-05-09T04:55:43.373Z,11.80
2024-05-09T04:58:11.768Z,11.90
2024-05-09T05:00:40.694Z,11.90
2024-05-09T05:03:13.434Z,11.90
2024-05-09T05:05:44.584Z,11.90
2024-05-09T05:08:14.101Z,11.90
2024-05-09T05:10:42.655Z,11.90
2024-05-09T05:13:17.953Z,11.60
2024-05-09T05:15:47.364Z,11.90
2024-05-09T05:18:16.100Z,11.90
2024-05-09T05:20:44.344Z,11.90
2024-05-09T05:23:13.808Z,12.00
2024-05-09T05:25:44.974Z,11.70
2024-05-09T05:28:12.426Z,12.00
2024-05-09T05:30:41.175Z,12.00
2024-05-09T05:33:11.862Z,12.10
2024-05-09T05:35:39.968Z,12.10
2024-05-09T05:38:08.573Z,11.90
2024-05-09T05:40:40.750Z,12.10
2024-05-09T05:43:10.556Z,12.20
2024-05-09T05:45:39.011Z,12.20
2024-05-09T05:48:07.776Z,12.10
2024-05-09T05:50:37.698Z,12.20
2024-05-09T05:53:08.007Z,12.60
2024-05-09T05:55:37.027Z,12.60
2024-05-09T05:58:04.801Z,12.20
2024-05-09T06:00:38.710Z,12.20
2024-05-09T06:03:12.145Z,12.30
2024-05-09T06:05:40.697Z,12.30
2024-05-09T06:08:09.241Z,12.30
2024-05-09T06:10:39.770Z,12.30
2024-05-09T06:13:13.002Z,12.40
2024-05-09T06:15:41.527Z,12.50
2024-05-09T06:18:10.883Z,12.40
2024-05-09T06:20:40.444Z,12.40
2024-05-09T06:23:09.987Z,12.50
2024-05-09T06:25:38.209Z,12.50
2024-05-09T06:28:06.070Z,12.50
2024-05-09T06:30:40.017Z,12.50
2024-05-09T06:33:12.304Z,12.60
2024-05-09T06:35:41.740Z,12.70
2024-05-09T06:38:09.839Z,12.70
2024-05-09T06:40:42.619Z,12.70
2024-05-09T06:43:19.290Z,12.80
2024-05-09T06:45:53.167Z,12.80
2024-05-09T06:48:22.109Z,12.80
2024-05-09T06:50:50.871Z,12.90
2024-05-09T06:53:21.067Z,12.90
2024-05-09T06:55:48.597Z,12.90
2024-05-09T06:58:16.768Z,13.00
2024-05-09T07:00:44.313Z,13.00
2024-05-09T07:03:15.713Z,13.10
2024-05-09T07:05:46.820Z,13.10
2024-05-09T07:08:15.371Z,13.10
2024-05-09T07:10:42.953Z,13.20
2024-05-09T07:13:12.045Z,13.20
2024-05-09T07:15:40.212Z,13.30
2024-05-09T07:18:17.366Z,13.40
2024-05-09T07:20:46.897Z,13.40
2024-05-09T07:23:15.692Z,13.50
2024-05-09T07:25:43.788Z,13.50
2024-05-09T07:28:19.504Z,13.60
2024-05-09T07:30:47.484Z,13.60
2024-05-09T07:33:23.930Z,13.60
2024-05-09T07:35:52.555Z,13.70
2024-05-09T07:38:20.364Z,13.70
2024-05-09T07:40:47.916Z,13.80
2024-05-09T07:43:16.258Z,13.90
2024-05-09T07:45:51.493Z,13.90
2024-05-09T07:52:37.841Z,14.00
2024-05-09T07:53:48.351Z,14.00
2024-05-09T07:56:21.232Z,14.00
2024-05-09T07:58:51.538Z,14.10
2024-05-09T08:01:19.766Z,14.10
2024-05-09T08:03:47.612Z,14.10
2024-05-09T08:06:15.334Z,14.20
2024-05-09T08:08:42.875Z,14.30
2024-05-09T08:11:10.470Z,14.30
2024-05-09T08:13:38.103Z,14.40
2024-05-09T08:16:06.202Z,14.40
2024-05-09T08:18:34.000Z,14.50
2024-05-09T08:21:01.490Z,14.60
2024-05-09T08:23:29.068Z,14.70
2024-05-09T08:25:56.645Z,14.70
2024-05-09T08:28:24.157Z,14.80
2024-05-09T08:30:52.004Z,14.80
2024-05-09T08:33:19.652Z,15.40
2024-05-09T08:35:47.273Z,15.10
2024-05-09T08:38:14.775Z,15.00
2024-05-09T08:40:42.616Z,15.00
2024-05-09T08:43:12.165Z,15.10
2024-05-09T08:45:45.436Z,15.10
2024-05-09T08:48:18.447Z,15.10
2024-05-09T08:50:46.184Z,15.10
2024-05-09T08:53:15.390Z,15.10
2024-05-09T08:55:44.351Z,15.10
2024-05-09T08:58:18.447Z,15.10
2024-05-09T09:00:46.837Z,15.10
2024-05-09T09:03:25.594Z,15.20
2024-05-09T09:06:02.029Z,14.90
2024-05-09T09:08:29.280Z,15.30
2024-05-09T09:10:59.500Z,15.30
2024-05-09T09:13:30.485Z,15.30
2024-05-09T09:15:59.382Z,15.30
2024-05-09T09:18:27.944Z,15.30
2024-05-09T09:20:58.519Z,15.40
2024-05-09T09:23:30.383Z,15.40
2024-05-09T09:26:01.733Z,15.50
2024-05-09T09:28:29.953Z,15.50
2024-05-09T09:31:04.365Z,15.50
2024-05-09T09:33:32.784Z,15.50
2024-05-09T09:36:06.324Z,15.50
2024-05-09T09:38:37.890Z,15.60
2024-05-09T09:41:08.602Z,15.60
2024-05-09T09:43:37.537Z,15.70
2024-05-09T09:46:09.555Z,15.70
2024-05-09T09:48:40.604Z,15.80
2024-05-09T09:51:09.301Z,15.90
2024-05-09T09:53:38.445Z,15.90
2024-05-09T09:56:10.741Z,15.90
2024-05-09T09:58:40.783Z,15.80
2024-05-09T10:01:08.492Z,15.90
2024-05-09T10:03:39.274Z,16.20
2024-05-09T10:06:08.138Z,16.10
2024-05-09T10:08:36.576Z,15.90
2024-05-09T10:11:04.922Z,15.90
2024-05-09T10:13:36.143Z,16.00
2024-05-09T10:16:12.244Z,16.00
2024-05-09T10:18:41.679Z,16.00
2024-05-09T10:21:21.574Z,16.10
2024-05-09T10:24:00.261Z,16.10
2024-05-09T10:26:33.003Z,16.10
2024-05-09T10:29:03.462Z,16.50
2024-05-09T10:31:31.404Z,16.20
2024-05-09T10:34:02.689Z,16.30
2024-05-09T10:36:30.436Z,16.30
2024-05-09T10:38:57.859Z,16.30
2024-05-09T10:41:25.368Z,16.40
2024-05-09T10:43:52.979Z,16.40
2024-05-09T10:46:20.581Z,16.40
2024-05-09T10:48:48.818Z,16.40
2024-05-09T10:51:19.806Z,16.50
2024-05-09T10:53:48.695Z,16.50
2024-05-09T10:56:17.345Z,16.60
2024-05-09T10:58:45.427Z,16.50
2024-05-09T11:01:14.099Z,16.60
2024-05-09T11:03:42.457Z,16.70
2024-05-09T11:06:11.670Z,16.70
2024-05-09T11:08:39.903Z,16.80
2024-05-09T11:11:08.937Z,16.80
2024-05-09T11:13:40.887Z,16.80
2024-05-09T11:16:20.226Z,16.90
2024-05-09T11:18:56.170Z,16.90
2024-05-09T11:21:24.830Z,16.90
2024-05-09T11:23:52.622Z,17.00
2024-05-09T11:26:22.202Z,17.10
2024-05-09T11:28:50.958Z,17.20
2024-05-09T11:31:18.960Z,17.20
2024-05-09T11:33:47.024Z,17.20
2024-05-09T11:36:14.993Z,17.20
2024-05-09T11:38:42.474Z,17.20
2024-05-09T11:41:09.851Z,17.30
2024-05-09T11:43:37.203Z,17.30
2024-05-09T11:46:04.873Z,17.30
2024-05-09T11:48:32.822Z,17.30
2024-05-09T11:51:00.393Z,17.40
2024-05-09T11:53:27.792Z,17.40
2024-05-09T11:55:55.200Z,17.50
2024-05-09T11:58:23.643Z,17.50
2024-05-09T12:00:51.399Z,17.60
2024-05-09T12:03:18.981Z,17.60
2024-05-09T12:05:46.557Z,17.60
2024-05-09T12:08:14.358Z,17.60
2024-05-09T12:10:42.063Z,17.60
2024-05-09T12:13:09.608Z,17.60
2024-05-09T12:15:38.310Z,17.60
2024-05-09T12:18:08.126Z,17.60
2024-05-09T12:20:39.073Z,17.60
2024-05-09T12:23:10.187Z,17.60
2024-05-09T12:25:39.754Z,17.70
2024-05-09T12:28:08.795Z,17.70
2024-05-09T12:30:41.575Z,17.70
2024-05-09T12:33:12.380Z,17.80
2024-05-09T12:35:43.443Z,17.90
2024-05-09T12:38:13.274Z,17.90
2024-05-09T12:40:40.816Z,18.00
2024-05-09T12:43:09.783Z,18.00
2024-05-09T12:45:38.464Z,18.00
2024-05-09T12:48:08.564Z,18.10
2024-05-09T12:50:36.913Z,18.20
2024-05-09T12:53:05.314Z,18.20
2024-05-09T12:55:41.305Z,18.30
2024-05-09T12:58:17.539Z,18.40
2024-05-09T13:00:46.202Z,18.40
2024-05-09T13:03:14.307Z,18.40
2024-05-09T13:05:44.985Z,18.50
2024-05-09T13:08:13.714Z,18.50
2024-05-09T13:10:41.315Z,18.50
2024-05-09T13:13:11.787Z,18.60
2024-05-09T13:15:39.497Z,18.60
2024-05-09T13:18:07.543Z,18.70
2024-05-09T13:20:37.073Z,18.70
2024-05-09T13:23:07.043Z,18.70
2024-05-09T13:25:35.582Z,18.70
2024-05-09T13:28:07.430Z,18.70
2024-05-09T13:30:40.322Z,18.80
2024-05-09T13:33:11.552Z,18.80
2024-05-09T13:35:41.293Z,18.80
2024-05-09T13:38:10.263Z,18.90
2024-05-09T13:40:37.819Z,18.80
2024-05-09T13:43:05.595Z,18.80
2024-05-09T13:45:33.772Z,18.80
2024-05-09T13:48:03.967Z,18.80
2024-05-09T13:50:35.588Z,18.80
2024-05-09T13:53:07.022Z,18.80
2024-05-09T13:55:37.725Z,18.80
2024-05-09T13:58:05.620Z,18.80
2024-05-09T14:00:43.861Z,18.90
2024-05-09T14:03:16.630Z,18.90
2024-05-09T14:05:45.698Z,18.90
2024-05-09T14:08:15.698Z,19.00
2024-05-09T14:10:46.452Z,19.10
2024-05-09T14:13:14.488Z,19.20
2024-05-09T14:15:42.093Z,19.30
2024-05-09T14:18:12.522Z,19.30
2024-05-09T14:20:41.746Z,19.30
2024-05-09T14:23:09.645Z,19.40
2024-05-09T14:25:41.974Z,19.40
2024-05-09T14:28:12.134Z,19.40
2024-05-09T14:30:40.364Z,19.40
2024-05-09T14:33:09.413Z,19.40
2024-05-09T14:35:38.593Z,19.40
2024-05-09T14:38:08.052Z,19.40
2024-05-09T14:40:42.133Z,19.40
2024-05-09T14:43:13.258Z,19.40
2024-05-09T14:45:41.550Z,19.40
2024-05-09T14:48:09.941Z,19.40
2024-05-09T14:50:39.808Z,19.40
2024-05-09T14:53:10.072Z,19.40
2024-05-09T14:55:42.915Z,19.40
2024-05-09T14:58:12.877Z,19.40
2024-05-09T15:00:46.805Z,19.40
2024-05-09T15:03:18.955Z,19.40
2024-05-09T15:05:47.859Z,19.40
2024-05-09T15:08:18.360Z,19.60
2024-05-09T15:10:46.766Z,19.30
2024-05-09T15:13:16.597Z,19.50
2024-05-09T15:15:44.815Z,19.60
2024-05-09T15:18:13.309Z,19.70
2024-05-09T15:20:41.916Z,19.70
2024-05-09T15:23:09.716Z,19.70
2024-05-09T15:25:37.339Z,19.80
2024-05-09T15:28:07.839Z,20.00
2024-05-09T15:30:36.482Z,19.90
2024-05-09T15:33:04.862Z,19.90
2024-05-09T15:35:34.064Z,20.00
2024-05-09T15:38:03.512Z,20.00
2024-05-09T15:40:38.287Z,19.90
2024-05-09T15:43:10.110Z,20.00
2024-05-09T15:45:39.261Z,20.00
2024-05-09T15:48:08.062Z,20.00
2024-05-09T15:50:39.581Z,20.00
2024-05-09T15:53:11.129Z,20.00
2024-05-09T15:55:39.514Z,20.00
2024-05-09T15:58:07.723Z,20.00
2024-05-09T16:00:39.623Z,20.00
2024-05-09T16:03:11.159Z,20.00
2024-05-09T16:05:39.855Z,20.10
2024-05-09T16:08:08.380Z,20.10
2024-05-09T16:10:38.718Z,20.10
2024-05-09T16:13:06.716Z,20.10
2024-05-09T16:15:34.095Z,20.10
2024-05-09T16:18:01.724Z,20.10
2024-05-09T16:20:37.600Z,20.10
2024-05-09T16:23:09.069Z,20.20
2024-05-09T16:25:37.173Z,20.20
2024-05-09T16:28:08.955Z,20.20
2024-05-09T16:30:41.429Z,20.20
2024-05-09T16:33:09.713Z,20.30
2024-05-09T16:35:37.932Z,20.30
2024-05-09T16:38:06.345Z,20.30
2024-05-09T16:40:38.652Z,20.30
2024-05-09T16:43:12.812Z,20.40
2024-05-09T16:45:44.018Z,20.30
2024-05-09T16:48:12.398Z,20.40
2024-05-09T16:50:39.788Z,20.40
2024-05-09T16:53:07.494Z,20.40
2024-05-09T16:55:35.999Z,20.40
2024-05-09T16:58:05.110Z,20.40
2024-05-09T17:00:40.327Z,20.50
2024-05-09T17:03:13.071Z,20.40
2024-05-09T17:05:42.425Z,20.40
2024-05-09T17:08:10.303Z,20.50
2024-05-09T17:10:37.949Z,20.40
2024-05-09T17:13:07.389Z,20.40
2024-05-09T17:15:37.096Z,20.40
2024-05-09T17:18:06.730Z,20.40
2024-05-09T17:20:36.811Z,20.40
2024-05-09T17:23:13.421Z,20.30
2024-05-09T17:25:41.891Z,20.30
2024-05-09T17:28:10.582Z,20.10
2024-05-09T17:30:40.416Z,20.30
2024-05-09T17:33:10.671Z,20.30
2024-05-09T17:35:39.315Z,20.20
2024-05-09T17:38:07.475Z,20.20
2024-05-09T17:40:37.368Z,20.10
2024-05-09T17:43:09.104Z,20.00
2024-05-09T17:45:39.186Z,20.00
2024-05-09T17:48:09.547Z,20.00
2024-05-09T17:50:38.120Z,19.90
2024-05-09T17:53:06.869Z,19.90
2024-05-09T17:55:35.008Z,19.80
2024-05-09T17:58:02.873Z,19.80
2024-05-09T18:00:37.816Z,19.80
2024-05-09T18:03:10.586Z,19.70
2024-05-09T18:05:38.659Z,19.60
2024-05-09T18:08:07.464Z,19.60
2024-05-09T18:10:38.624Z,19.50
2024-05-09T18:13:11.988Z,19.50
2024-05-09T18:15:40.135Z,19.40
2024-05-09T18:18:09.174Z,19.30
2024-05-09T18:20:43.121Z,19.30
2024-05-09T18:23:15.777Z,19.20
2024-05-09T18:25:44.700Z,19.20
2024-05-09T18:28:12.174Z,19.20
2024-05-09T18:30:40.509Z,19.20
2024-05-09T18:33:11.412Z,19.20
2024-05-09T18:35:41.906Z,19.10
2024-05-09T18:38:10.003Z,19.10
2024-05-09T18:40:38.883Z,19.30
2024-05-09T18:43:08.967Z,19.10
2024-05-09T18:45:40.218Z,19.00
2024-05-09T18:48:10.105Z,19.00
2024-05-09T18:50:40.562Z,18.90
2024-05-09T18:53:13.540Z,18.90
2024-05-09T18:55:42.846Z,18.80
2024-05-09T18:58:10.294Z,18.80
2024-05-09T19:00:40.283Z,18.70
2024-05-09T19:03:12.917Z,18.70
2024-05-09T19:05:43.680Z,18.60
2024-05-09T19:08:12.624Z,18.60
2024-05-09T19:10:40.609Z,18.50
2024-05-09T19:13:12.300Z,18.50
2024-05-09T19:15:42.679Z,18.40
2024-05-09T19:18:13.042Z,18.50
2024-05-09T19:20:41.326Z,18.40
2024-05-09T19:23:08.921Z,18.30
2024-05-09T19:25:36.615Z,18.30
2024-05-09T19:28:05.498Z,18.20
2024-05-09T19:30:39.018Z,18.20
2024-05-09T19:33:11.244Z,18.10
2024-05-09T19:35:40.004Z,18.10
2024-05-09T19:38:07.433Z,18.00
2024-05-09T19:40:35.651Z,18.00
2024-05-09T19:43:05.002Z,18.00
2024-05-09T19:45:34.444Z,17.90
2024-05-09T19:48:03.099Z,17.90
2024-05-09T19:50:37.560Z,17.80
2024-05-09T19:53:11.264Z,17.80
2024-05-09T19:55:39.069Z,17.70
2024-05-09T19:58:07.920Z,17.70
2024-05-09T20:00:41.787Z,17.70
2024-05-09T20:03:12.640Z,17.60
2024-05-09T20:05:40.729Z,17.60
2024-05-09T20:08:08.463Z,17.50
2024-05-09T20:10:36.797Z,17.50
2024-05-09T20:13:06.625Z,17.40
2024-05-09T20:15:37.066Z,17.40
2024-05-09T20:18:06.003Z,17.40
2024-05-09T20:20:39.531Z,17.40
2024-05-09T20:23:10.791Z,17.30
2024-05-09T20:25:38.469Z,17.30
2024-05-09T20:28:06.620Z,17.20
2024-05-09T20:30:35.433Z,17.20
2024-05-09T20:33:05.315Z,17.20
2024-05-09T20:35:34.865Z,17.20
2024-05-09T20:38:03.399Z,17.10
2024-05-09T20:40:35.491Z,17.10
2024-05-09T20:43:06.697Z,17.10
2024-05-09T20:45:34.949Z,17.10
2024-05-09T20:48:02.874Z,17.00
2024-05-09T20:50:37.507Z,17.00
2024-05-09T20:53:13.409Z,17.00
2024-05-09T20:55:42.476Z,16.90
2024-05-09T20:58:10.651Z,16.90
2024-05-09T21:00:41.926Z,16.90
2024-05-09T21:03:13.615Z,16.80
2024-05-09T21:05:42.227Z,16.80
2024-05-09T21:08:09.738Z,16.80
2024-05-09T21:10:37.867Z,16.80
2024-05-09T21:13:06.692Z,16.70
2024-05-09T21:15:35.629Z,16.70
2024-05-09T21:18:04.336Z,16.60
2024-05-09T21:20:34.604Z,16.60
2024-05-09T21:23:02.851Z,16.60
2024-05-09T21:25:30.516Z,16.50
2024-05-09T21:27:58.292Z,16.60
2024-05-09T21:30:32.748Z,16.60
2024-05-09T21:33:13.761Z,16.50
2024-05-09T21:35:45.594Z,16.50
2024-05-09T21:38:14.772Z,16.40
2024-05-09T21:40:43.182Z,16.40
2024-05-09T21:43:10.709Z,16.40
2024-05-09T21:45:38.321Z,16.40
2024-05-09T21:48:07.186Z,16.30
2024-05-09T21:50:40.181Z,16.30
2024-05-09T21:53:13.578Z,16.30
2024-05-09T21:55:44.702Z,16.20
2024-05-09T21:58:13.619Z,16.30
2024-05-09T22:00:45.535Z,16.20
2024-05-09T22:03:14.275Z,16.20
2024-05-09T22:05:44.421Z,16.20
2024-05-09T22:08:12.423Z,16.20
2024-05-09T22:10:39.983Z,16.20
2024-05-09T22:13:08.520Z,16.10
2024-05-09T22:15:38.202Z,16.10
2024-05-09T22:18:08.485Z,16.10
2024-05-09T22:20:39.219Z,16.10
2024-05-09T22:23:08.508Z,16.10
2024-05-09T22:25:37.195Z,16.00
2024-05-09T22:28:05.067Z,16.00
2024-05-09T22:30:37.201Z,16.00
2024-05-09T22:33:09.682Z,16.00
2024-05-09T22:35:38.854Z,15.90
2024-05-09T22:38:06.718Z,15.90
2024-05-09T22:40:44.887Z,15.90
2024-05-09T22:43:24.636Z,15.90
2024-05-09T22:45:55.981Z,15.80
2024-05-09T22:48:24.764Z,15.70
2024-05-09T22:50:53.482Z,15.80
2024-05-09T22:53:24.923Z,15.80
2024-05-09T22:55:53.091Z,15.70
2024-05-09T22:58:20.902Z,15.70
2024-05-09T23:00:48.528Z,15.70
2024-05-09T23:03:16.848Z,15.70
2024-05-09T23:05:44.491Z,15.70
2024-05-09T23:08:11.867Z,15.70
2024-05-09T23:10:39.351Z,15.60
2024-05-09T23:13:07.937Z,15.60
2024-05-09T23:15:38.720Z,15.60
2024-05-09T23:18:06.842Z,15.60
2024-05-09T23:20:38.490Z,15.50
2024-05-09T23:23:09.217Z,15.50
2024-05-09T23:25:37.927Z,15.40
2024-05-09T23:28:05.828Z,15.30
2024-05-09T23:30:38.112Z,15.30
2024-05-09T23:33:09.831Z,15.30
2024-05-09T23:35:37.506Z,15.20
2024-05-09T23:38:05.589Z,15.20
2024-05-09T23:40:39.306Z,15.20
2024-05-09T23:43:10.006Z,15.20
2024-05-09T23:45:38.044Z,15.10
2024-05-09T23:48:06.720Z,15.10
2024-05-09T23:50:37.511Z,15.00
2024-05-09T23:53:08.567Z,15.00
2024-05-09T23:55:37.451Z,15.00
2024-05-09T23:58:05.363Z,14.90
